Terminal Aerodrome Forecast
Issued by NWS

Home | Current Version | Previous Version | Text Only | Print | Product List | Glossary On
Versions: 1 2 3 4 5 6 7 8 9 10 11 12 13 14 15 16 17 18 19
000
FTUS45 KBOU 170538
TAFAPA
TAF
KAPA 170538Z 1706/1806 17006KT P6SM FEW220
     FM172000 09006KT P6SM SCT220
     FM180200 20008KT P6SM SCT220=

USA.gov is the U.S. government's official web portal to all federal, state and local government web resources and services.